createdAt,value
2019-03-31T00:02:47.128Z,78.38
2019-03-31T00:07:55.993Z,71.00
2019-03-31T00:13:04.890Z,74.48
2019-03-31T00:18:13.767Z,64.60
2019-03-31T00:23:22.751Z,61.18
2019-03-31T00:28:31.644Z,55.07
2019-03-31T00:33:40.684Z,52.78
2019-03-31T00:38:49.552Z,49.94
2019-03-31T00:43:58.459Z,43.32
2019-03-31T00:49:07.352Z,37.36
2019-03-31T00:54:16.283Z,39.90
2019-03-31T00:59:25.144Z,36.35
2019-03-31T01:04:34.066Z,29.63
2019-03-31T01:09:42.965Z,30.11
2019-03-31T01:14:51.892Z,26.68
2019-03-31T01:20:00.756Z,24.43
2019-03-31T01:25:09.663Z,24.76
2019-03-31T01:30:18.520Z,21.48
2019-03-31T01:35:27.414Z,21.16
2019-03-31T01:40:36.315Z,17.90
2019-03-31T01:45:45.230Z,24.94
2019-03-31T01:50:54.126Z,19.57
2019-03-31T01:56:03.030Z,23.27
2019-03-31T02:01:11.931Z,29.91
2019-03-31T02:06:20.788Z,27.66
2019-03-31T02:11:29.744Z,20.84
2019-03-31T02:16:38.627Z,19.87
2019-03-31T02:21:47.538Z,19.80
2019-03-31T02:26:56.388Z,20.23
2019-03-31T02:32:22.455Z,18.30
2019-03-31T02:37:13.790Z,19.21
2019-03-31T02:42:22.701Z,14.71
2019-03-31T02:47:31.588Z,16.63
2019-03-31T02:52:40.473Z,17.27
2019-03-31T02:57:49.321Z,16.12
2019-03-31T03:02:58.349Z,16.56
2019-03-31T03:08:07.237Z,26.02
2019-03-31T03:13:16.184Z,17.26
2019-03-31T03:18:25.081Z,13.04
2019-03-31T03:23:33.983Z,16.41
2019-03-31T03:28:42.878Z,27.68
2019-03-31T03:33:51.733Z,22.93
2019-03-31T03:39:00.665Z,27.35
2019-03-31T03:44:09.514Z,25.46
2019-03-31T03:49:18.517Z,17.03
2019-03-31T03:54:27.284Z,24.39
2019-03-31T03:59:36.192Z,30.59
2019-03-31T04:04:45.050Z,21.03
2019-03-31T04:09:53.916Z,32.01
2019-03-31T04:15:02.812Z,19.86
2019-03-31T04:20:11.693Z,23.37
2019-03-31T04:25:20.571Z,17.86
2019-03-31T04:30:29.528Z,32.14
2019-03-31T04:35:38.408Z,24.34
2019-03-31T04:40:47.284Z,103.55
2019-03-31T04:45:56.159Z,60.02
2019-03-31T04:51:05.094Z,68.61
2019-03-31T04:56:13.985Z,53.10
2019-03-31T05:01:22.908Z,37.54
2019-03-31T05:06:31.764Z,39.15
2019-03-31T05:11:40.664Z,39.06
2019-03-31T05:16:49.548Z,33.90
2019-03-31T05:21:58.397Z,24.39
2019-03-31T05:27:07.296Z,22.84
2019-03-31T05:32:16.203Z,21.47
2019-03-31T05:37:25.113Z,29.38
2019-03-31T05:42:33.960Z,17.41
2019-03-31T05:47:42.852Z,33.36
2019-03-31T05:52:51.738Z,34.91
2019-03-31T05:58:00.646Z,35.71
2019-03-31T06:03:09.518Z,56.77
2019-03-31T06:08:18.373Z,29.10
2019-03-31T06:13:27.283Z,22.67
2019-03-31T06:18:36.180Z,13.86
2019-03-31T06:23:45.075Z,11.87
2019-03-31T06:28:53.963Z,12.42
2019-03-31T06:34:02.839Z,10.43
2019-03-31T06:39:11.719Z,9.38
2019-03-31T06:44:20.588Z,7.17
2019-03-31T06:49:29.483Z,7.00
2019-03-31T06:54:38.363Z,14.22
2019-03-31T06:59:47.295Z,39.71
2019-03-31T07:05:01.049Z,35.23
2019-03-31T07:10:04.617Z,28.11
2019-03-31T07:15:13.493Z,56.05
2019-03-31T07:20:22.364Z,38.86
2019-03-31T07:25:31.224Z,44.26
2019-03-31T07:30:40.102Z,56.12
2019-03-31T07:35:48.968Z,28.76
2019-03-31T07:41:11.698Z,14.40
2019-03-31T07:46:06.499Z,16.11
2019-03-31T07:51:15.519Z,11.85
2019-03-31T07:56:24.387Z,15.71
2019-03-31T08:01:33.276Z,13.65
2019-03-31T08:06:42.179Z,11.58
2019-03-31T08:11:51.051Z,15.67
2019-03-31T08:16:59.936Z,21.59
2019-03-31T08:22:08.872Z,20.71
2019-03-31T08:27:17.709Z,19.48
2019-03-31T08:32:28.408Z,24.86
2019-03-31T08:37:35.038Z,18.84
2019-03-31T08:42:44.003Z,24.90
2019-03-31T08:47:52.916Z,20.99
2019-03-31T08:53:01.875Z,24.57
2019-03-31T08:58:10.747Z,21.69
2019-03-31T09:03:19.679Z,29.34
2019-03-31T09:08:28.531Z,22.39
2019-03-31T09:13:37.425Z,47.22
2019-03-31T09:18:46.302Z,26.62
2019-03-31T09:23:55.195Z,37.39
2019-03-31T09:29:04.063Z,28.48
2019-03-31T09:34:12.936Z,29.45
2019-03-31T09:39:21.843Z,32.31
2019-03-31T09:44:30.728Z,38.47
2019-03-31T09:49:39.613Z,40.67
2019-03-31T09:54:48.519Z,30.80
2019-03-31T09:59:57.457Z,30.72
2019-03-31T10:05:06.356Z,32.64
2019-03-31T10:10:15.395Z,24.33
2019-03-31T10:15:24.279Z,29.97
2019-03-31T10:20:33.192Z,31.69
2019-03-31T10:25:42.092Z,32.99
2019-03-31T10:30:50.933Z,30.68
2019-03-31T10:35:59.977Z,23.29
2019-03-31T10:41:08.856Z,27.20
2019-03-31T10:46:17.776Z,31.99
2019-03-31T10:51:26.782Z,24.51
2019-03-31T10:56:35.645Z,33.91
2019-03-31T11:01:44.511Z,27.00
2019-03-31T11:06:59.136Z,30.14
2019-03-31T11:12:01.809Z,29.93
2019-03-31T11:17:10.697Z,26.59
2019-03-31T11:22:19.563Z,20.59
2019-03-31T11:27:28.478Z,18.27
2019-03-31T11:32:37.393Z,22.20
2019-03-31T11:37:46.314Z,22.21
2019-03-31T11:42:55.200Z,19.15
2019-03-31T11:48:04.090Z,18.87
2019-03-31T11:53:12.947Z,20.72
2019-03-31T11:58:21.875Z,17.95
2019-03-31T12:03:31.345Z,20.01
2019-03-31T12:08:39.176Z,18.55
2019-03-31T12:13:48.034Z,20.91
2019-03-31T12:18:56.879Z,25.74
2019-03-31T12:24:05.752Z,26.91
2019-03-31T12:29:14.669Z,15.90
2019-03-31T12:34:23.600Z,18.50
2019-03-31T12:39:32.467Z,22.96
2019-03-31T12:44:41.316Z,20.45
2019-03-31T12:49:50.221Z,24.25
2019-03-31T12:54:59.093Z,27.01
2019-03-31T13:00:08.035Z,19.41
2019-03-31T13:05:16.999Z,19.00
2019-03-31T13:10:25.872Z,19.94
2019-03-31T13:15:34.776Z,21.39
2019-03-31T13:20:43.653Z,31.16
2019-03-31T13:25:52.673Z,24.58
2019-03-31T13:31:01.524Z,30.60
2019-03-31T13:36:10.416Z,19.09
2019-03-31T13:41:19.324Z,18.39
2019-03-31T13:46:28.199Z,17.06
2019-03-31T13:51:37.139Z,15.98
2019-03-31T13:56:48.763Z,16.57
2019-03-31T14:01:54.501Z,16.99
2019-03-31T14:07:04.568Z,19.18
2019-03-31T14:12:11.874Z,16.12
2019-03-31T14:17:24.229Z,14.43
2019-03-31T14:22:29.276Z,13.51
2019-03-31T14:27:38.178Z,14.03
2019-03-31T14:32:47.070Z,18.95
2019-03-31T14:37:55.929Z,38.18
2019-03-31T14:43:04.833Z,31.49
2019-03-31T14:48:13.740Z,24.96
2019-03-31T14:53:22.645Z,15.98
2019-03-31T14:58:31.552Z,18.67
2019-03-31T15:03:40.447Z,17.95
2019-03-31T15:08:54.467Z,19.07
2019-03-31T15:13:57.729Z,16.18
2019-03-31T15:19:05.139Z,15.34
2019-03-31T15:24:14.085Z,15.03
2019-03-31T15:29:22.940Z,14.20
2019-03-31T15:34:31.868Z,22.46
2019-03-31T15:39:40.736Z,25.83
2019-03-31T15:44:49.645Z,18.12
2019-03-31T15:49:58.531Z,21.97
2019-03-31T15:55:07.429Z,30.32
2019-03-31T16:00:16.346Z,21.89
2019-03-31T16:05:25.215Z,17.39
2019-03-31T16:10:34.100Z,22.39
2019-03-31T16:15:42.975Z,19.54
2019-03-31T16:20:51.865Z,20.74
2019-03-31T16:26:00.775Z,16.55
2019-03-31T16:31:09.752Z,16.55
2019-03-31T16:36:18.584Z,17.69
2019-03-31T16:41:27.491Z,17.84
2019-03-31T16:46:39.699Z,16.97
2019-03-31T16:51:44.847Z,16.30
2019-03-31T16:56:53.716Z,18.31
2019-03-31T17:02:02.676Z,24.94
2019-03-31T17:07:11.543Z,33.62
2019-03-31T17:12:20.459Z,28.36
2019-03-31T17:17:29.334Z,40.15
2019-03-31T17:22:38.228Z,45.20
2019-03-31T17:27:47.088Z,40.03
2019-03-31T17:32:55.985Z,33.39
2019-03-31T17:38:04.939Z,48.05
2019-03-31T17:43:13.884Z,40.83
2019-03-31T17:48:22.775Z,46.92
2019-03-31T17:53:31.635Z,39.76
2019-03-31T17:58:40.553Z,37.67
2019-03-31T18:03:49.441Z,43.09
2019-03-31T18:08:58.314Z,44.66
2019-03-31T18:14:07.241Z,65.12
2019-03-31T18:19:16.088Z,81.96
2019-03-31T18:24:24.945Z,97.02
2019-03-31T18:29:33.808Z,82.17
2019-03-31T18:34:42.744Z,91.47
2019-03-31T18:39:51.637Z,77.69
2019-03-31T18:45:00.545Z,84.03
2019-03-31T18:50:09.386Z,70.11
2019-03-31T18:55:18.295Z,70.91
2019-03-31T19:00:27.236Z,71.84
2019-03-31T19:05:36.149Z,91.92
2019-03-31T19:10:49.758Z,58.86
2019-03-31T19:15:53.477Z,58.91
2019-03-31T19:21:11.186Z,53.97
2019-03-31T19:26:10.756Z,63.15
2019-03-31T19:31:19.700Z,54.68
2019-03-31T19:36:28.642Z,45.50
2019-03-31T19:41:37.548Z,55.35
2019-03-31T19:46:46.492Z,46.81
2019-03-31T19:51:55.382Z,60.54
2019-03-31T19:57:04.316Z,49.21
2019-03-31T20:02:13.197Z,62.21
2019-03-31T20:07:22.083Z,55.82
2019-03-31T20:12:31.034Z,55.64
2019-03-31T20:17:39.976Z,49.97
2019-03-31T20:22:48.840Z,50.19
2019-03-31T20:27:59.609Z,56.22
2019-03-31T20:33:07.565Z,38.89
2019-03-31T20:38:17.117Z,42.67
2019-03-31T20:43:16.011Z,29.68
2019-03-31T20:48:24.938Z,24.28
2019-03-31T20:53:33.828Z,33.89
2019-03-31T20:58:42.696Z,19.54
2019-03-31T21:03:51.599Z,17.52
2019-03-31T21:09:00.480Z,16.90
2019-03-31T21:14:09.384Z,18.19
2019-03-31T21:19:19.338Z,16.58
2019-03-31T21:24:26.801Z,24.48
2019-03-31T21:29:35.672Z,18.03
2019-03-31T21:34:44.559Z,24.08
2019-03-31T21:39:53.847Z,57.21
2019-03-31T21:45:02.755Z,26.73
2019-03-31T21:50:11.564Z,32.78
2019-03-31T21:55:20.523Z,29.98
2019-03-31T22:00:29.395Z,27.10
2019-03-31T22:05:38.311Z,20.19
2019-03-31T22:10:47.187Z,17.18
2019-03-31T22:15:56.155Z,15.94
2019-03-31T22:21:05.030Z,13.60
2019-03-31T22:26:13.913Z,15.82
2019-03-31T22:31:22.808Z,14.25
2019-03-31T22:36:31.728Z,9.43
2019-03-31T22:41:40.596Z,9.06
2019-03-31T22:46:54.547Z,9.65
2019-03-31T22:51:57.951Z,11.05
2019-03-31T22:57:06.908Z,15.27
2019-03-31T23:02:15.789Z,12.48
2019-03-31T23:07:24.679Z,11.88
2019-03-31T23:12:33.549Z,15.55
2019-03-31T23:17:42.499Z,9.44
2019-03-31T23:22:51.341Z,10.32
2019-03-31T23:28:00.285Z,9.42
2019-03-31T23:33:09.175Z,10.18
2019-03-31T23:38:18.110Z,13.84
2019-03-31T23:43:26.972Z,10.51
2019-03-31T23:48:35.891Z,18.48
2019-03-31T23:53:44.775Z,16.40
2019-03-31T23:58:53.715Z,10.71
